OROVILLE DAM (ORO)

Elevation: 900' · FEATHER R basin · Operator: CA Dept of Water Resources/O & M

Provisional data, subject to change.
Query executed Tuesday at 1:37:33   clock

Select a sensor type for a plot of data.
Note: Reservoir Flows are daily averages.

Earlier

Date RES ELE    STORAGE    RES CHG    TOC STO    ABV TOC    OUTFLOW    INFLOW    EVAP    FNF    PPT INC    RAIN    PPTINC4   
 FEET   AF   AF   AF   AF   CFS   CFS   CFS   CFS   INCHES   INCHES   INCHES  
06/30/2014 731.53 1511388 -4700 3538000 -2026612 3948 1719 91 1153 0.00 18.84 0.00
07/01/2014 731.09 1507576 -3812 3538000 -2030424 3352 1546 116 1325 0.00 18.84 0.00
07/02/2014 729.84 1496782 -10794 3538000 -2041218 7032 1706 116 1310 0.00 18.84 0.00
07/03/2014 728.57 1485872 -10910 3538000 -2052128 7039 1641 103 1246 e 0.00 18.84 0.00
07/04/2014 726.86 1471268 -14604 3538000 -2066732 8916 1613 103 1246 e 0.00 18.84 0.00
07/05/2014 725.14 1456681 -14587 3538000 -2081319 8986 1777 103 1441 0.00 18.84 0.00
07/06/2014 724.08 1447741 -8940 3538000 -2090259 6100 1666 116 1228 e 0.00 18.84 0.00
07/07/2014 723.06 1439174 -8567 3538000 -2098826 5299 1094 113 1227 e 0.00 18.84 0.00
07/08/2014 722.79 1436912 -2262 3538000 -2101088 2421 1469 103 1198 0.00 18.84 0.00
07/09/2014 722.31 1432897 -4015 3538000 -2105103 3486 1591 87 957 e 0.00 18.84 0.00
07/10/2014 721.33 1424724 -8173 3538000 -2113276 4992 871 126 638 0.00 18.84 0.00
07/11/2014 719.74 1411532 -13192 3538000 -2126468 7245 696 102 659 0.00 18.84 0.00
07/12/2014 717.75 1395140 -16392 3538000 -- 8818 658 104 543 0.00 18.84 0.00
07/13/2014 716.26 1382953 -12187 3538000 -- 7077 1080 106 696 0.00 18.84 0.00
07/14/2014 715.24 1374652 -8301 3538000 -- 5154 1010 82 634 0.00 18.84 0.00
07/15/2014 714.38 1367680 -6972 3538000 -2170320 4589 1203 129 765 0.00 18.84 0.00
07/16/2014 714.13 1365658 -2022 3538000 -2172342 2513 1582 89 948 0.00 18.84 0.00
07/17/2014 713.34 1359281 -6377 3538000 -2178719 4357 1262 79 825 0.00 18.84 0.00
07/18/2014 712.77 1354692 -4589 3538000 -2183308 3541 1266 79 658 e 0.00 18.84 0.00
07/19/2014 711.09 1341230 -13462 3538000 -2196770 7772 1100 74 931 0.00 18.84 0.00
07/20/2014 709.35 1327383 -13847 3538000 -2210617 7310 397 69 658 e 0.00 18.84 0.00
07/21/2014 708.76 1322710 -4673 3538000 -2215290 3323 1121 114 -- 0.00 18.84 0.00
07/22/2014 708.01 1316786 -5924 3538000 -2221214 3980 1061 68 -- 0.00 18.84 0.00
07/23/2014 707.50 1312768 -4018 3538000 -2225232 3405 1365 65 -- 0.00 18.84 0.00
07/24/2014 706.29 1303268 -9500 3538000 -2234732 6243 1510 96 -- 0.00 18.84 0.00
07/25/2014 704.83 1291868 -11400 3538000 -2246132 6764 1120 103 -- 0.00 18.84 0.00
07/26/2014 703.96 1285106 -6762 3538000 -2252894 4939 1640 109 -- 0.00 18.84 0.00
07/27/2014 702.63 1274816 -10290 3538000 -2263184 6315 1268 102 -- 0.00 18.84 0.00
07/28/2014 -- -- -- -- -- 4571 1569 144 -- -- -- 0.00
07/29/2014 -- -- -- -- -- -- -- -- -- -- -- --

Later | Latest

Warning! This data is preliminary and subject to revision.

Download Data Now Download Data Now | Show ORO Map | Plot ORO Data | 1 Month ORO Data | Real-Time ORO Data | ORO Info